createdAt,value
2019-02-21T00:02:07.737Z,4.60
2019-02-21T00:04:58.700Z,4.60
2019-02-21T00:07:21.173Z,4.60
2019-02-21T00:09:51.200Z,4.60
2019-02-21T00:12:36.490Z,4.60
2019-02-21T00:15:28.112Z,4.50
2019-02-21T00:18:17.509Z,4.60
2019-02-21T00:21:04.175Z,4.50
2019-02-21T00:23:54.504Z,4.50
2019-02-21T00:26:46.866Z,4.60
2019-02-21T00:29:35.754Z,4.50
2019-02-21T00:32:20.446Z,4.50
2019-02-21T00:35:08.388Z,4.50
2019-02-21T00:38:44.576Z,4.50
2019-02-21T00:40:10.582Z,4.40
2019-02-21T00:42:45.448Z,4.40
2019-02-21T00:45:12.885Z,4.40
2019-02-21T00:47:59.199Z,4.30
2019-02-21T00:50:48.312Z,4.20
2019-02-21T00:55:54.219Z,4.20
2019-02-21T00:58:44.659Z,4.20
2019-02-21T01:01:22.389Z,4.20
2019-02-21T01:04:02.671Z,4.10
2019-02-21T01:06:51.648Z,4.10
2019-02-21T01:09:31.958Z,4.10
2019-02-21T01:12:00.679Z,4.10
2019-02-21T01:14:49.707Z,4.20
2019-02-21T01:17:38.791Z,4.10
2019-02-21T01:20:21.415Z,4.20
2019-02-21T01:23:15.800Z,4.10
2019-02-21T01:26:05.044Z,4.20
2019-02-21T01:28:53.719Z,4.40
2019-02-21T01:31:39.442Z,4.60
2019-02-21T01:34:40.287Z,4.80
2019-02-21T01:37:20.845Z,4.90
2019-02-21T01:40:12.397Z,4.90
2019-02-21T01:43:02.574Z,5.10
2019-02-21T01:45:53.109Z,5.20
2019-02-21T01:48:41.855Z,5.20
2019-02-21T01:51:30.986Z,5.50
2019-02-21T01:54:21.545Z,5.60
2019-02-21T02:00:03.272Z,5.70
2019-02-21T02:02:52.329Z,5.80
2019-02-21T02:05:39.930Z,5.90
2019-02-21T02:08:29.222Z,6.10
2019-02-21T02:14:07.221Z,6.10
2019-02-21T02:16:56.284Z,6.10
2019-02-21T02:19:42.732Z,6.20
2019-02-21T02:22:39.042Z,6.20
2019-02-21T02:25:26.742Z,6.20
2019-02-21T02:27:55.768Z,6.30
2019-02-21T02:30:25.872Z,6.30
2019-02-21T02:33:05.926Z,6.30
2019-02-21T02:38:37.044Z,6.60
2019-02-21T02:41:05.568Z,6.60
2019-02-21T02:43:56.129Z,6.70
2019-02-21T02:46:48.845Z,6.60
2019-02-21T02:49:39.848Z,6.70
2019-02-21T02:52:27.585Z,6.80
2019-02-21T02:55:18.892Z,6.80
2019-02-21T02:58:07.910Z,6.90
2019-02-21T03:00:58.200Z,7.00
2019-02-21T03:03:48.867Z,7.00
2019-02-21T03:06:37.845Z,7.10
2019-02-21T03:10:15.130Z,7.10
2019-02-21T03:12:18.011Z,7.10
2019-02-21T03:15:10.248Z,7.10
2019-02-21T03:18:00.662Z,7.00
2019-02-21T03:20:56.291Z,7.10
2019-02-21T03:23:37.879Z,7.20
2019-02-21T03:26:26.731Z,7.20
2019-02-21T03:29:16.873Z,7.30
2019-02-21T03:32:07.616Z,7.30
2019-02-21T03:34:20.095Z,7.30
2019-02-21T03:36:50.935Z,7.30
2019-02-21T03:39:21.447Z,7.30
2019-02-21T03:42:08.033Z,7.30
2019-02-21T03:44:50.782Z,7.30
2019-02-21T03:47:42.415Z,7.30
2019-02-21T03:50:31.359Z,7.30
2019-02-21T03:53:22.580Z,7.30
2019-02-21T03:56:14.091Z,7.30
2019-02-21T03:59:03.517Z,7.30
2019-02-21T04:02:04.922Z,7.40
2019-02-21T04:04:47.952Z,7.50
2019-02-21T04:07:30.601Z,7.40
2019-02-21T04:10:20.252Z,7.30
2019-02-21T04:13:10.947Z,7.30
2019-02-21T04:15:41.041Z,7.60
2019-02-21T04:20:46.630Z,7.50
2019-02-21T04:23:25.508Z,7.60
2019-02-21T04:26:20.848Z,7.60
2019-02-21T04:29:03.050Z,7.70
2019-02-21T04:31:52.613Z,7.80
2019-02-21T04:34:41.452Z,7.80
2019-02-21T04:37:35.060Z,7.90
2019-02-21T04:40:21.262Z,7.80
2019-02-21T04:43:12.284Z,7.90
2019-02-21T04:45:23.142Z,7.90
2019-02-21T04:47:56.452Z,7.90
2019-02-21T04:50:26.693Z,7.80
2019-02-21T04:53:09.002Z,7.80
2019-02-21T04:55:59.711Z,7.70
2019-02-21T04:58:50.084Z,7.80
2019-02-21T05:01:40.397Z,8.00
2019-02-21T05:04:29.725Z,8.00
2019-02-21T05:07:15.807Z,8.00
2019-02-21T05:10:03.863Z,8.00
2019-02-21T05:12:55.433Z,8.10
2019-02-21T05:15:45.003Z,8.00
2019-02-21T05:18:34.991Z,8.00
2019-02-21T05:21:25.885Z,8.10
2019-02-21T05:24:21.907Z,8.00
2019-02-21T05:29:08.275Z,7.90
2019-02-21T05:29:55.198Z,8.00
2019-02-21T05:32:26.634Z,7.80
2019-02-21T05:35:31.712Z,7.80
2019-02-21T05:39:04.052Z,7.70
2019-02-21T05:42:06.177Z,7.60
2019-02-21T05:45:02.595Z,7.60
2019-02-21T05:51:12.660Z,7.80
2019-02-21T05:54:04.117Z,7.70
2019-02-21T05:56:57.684Z,7.70
2019-02-21T06:00:18.938Z,7.60
2019-02-21T06:03:57.864Z,7.60
2019-02-21T06:06:45.492Z,7.60
2019-02-21T06:09:35.022Z,7.50
2019-02-21T06:12:53.705Z,7.50
2019-02-21T06:15:52.776Z,7.60
2019-02-21T06:22:27.168Z,7.80
2019-02-21T06:25:33.895Z,7.90
2019-02-21T06:30:59.661Z,7.90
2019-02-21T06:33:49.493Z,8.00
2019-02-21T06:36:31.062Z,8.10
2019-02-21T06:39:21.696Z,8.10
2019-02-21T06:42:10.364Z,8.20
2019-02-21T06:44:59.438Z,8.10
2019-02-21T06:47:47.143Z,8.20
2019-02-21T06:50:36.044Z,8.30
2019-02-21T06:53:24.019Z,8.30
2019-02-21T06:56:14.887Z,8.40
2019-02-21T06:59:10.193Z,8.30
2019-02-21T07:01:53.812Z,8.30
2019-02-21T07:04:35.024Z,8.50
2019-02-21T07:07:16.804Z,8.50
2019-02-21T07:09:59.633Z,8.60
2019-02-21T07:12:42.454Z,8.60
2019-02-21T07:15:24.705Z,8.60
2019-02-21T07:18:02.961Z,8.60
2019-02-21T07:20:51.905Z,8.60
2019-02-21T07:23:42.828Z,8.60
2019-02-21T07:26:16.101Z,8.70
2019-02-21T07:29:29.110Z,8.60
2019-02-21T07:32:15.945Z,8.60
2019-02-21T07:34:52.269Z,8.60
2019-02-21T07:37:27.191Z,8.60
2019-02-21T07:40:07.965Z,8.60
2019-02-21T07:43:08.666Z,8.70
2019-02-21T07:46:01.828Z,8.70
2019-02-21T07:48:41.714Z,8.70
2019-02-21T07:51:28.992Z,8.70
2019-02-21T07:54:21.940Z,8.80
2019-02-21T07:57:01.981Z,8.80
2019-02-21T07:59:46.867Z,8.80
2019-02-21T08:02:28.834Z,8.90
2019-02-21T08:05:23.599Z,8.90
2019-02-21T08:08:12.750Z,8.90
2019-02-21T08:10:46.202Z,8.90
2019-02-21T08:13:17.906Z,9.00
2019-02-21T08:16:06.860Z,9.00
2019-02-21T08:18:58.686Z,9.00
2019-02-21T08:21:48.522Z,9.00
2019-02-21T08:24:39.745Z,9.00
2019-02-21T08:27:20.007Z,9.00
2019-02-21T08:30:17.185Z,9.10
2019-02-21T08:33:25.461Z,9.10
2019-02-21T08:36:00.680Z,9.10
2019-02-21T08:38:50.408Z,9.10
2019-02-21T08:41:39.834Z,9.10
2019-02-21T08:44:32.949Z,9.20
2019-02-21T08:47:24.606Z,9.20
2019-02-21T08:50:11.876Z,9.20
2019-02-21T08:53:01.241Z,9.30
2019-02-21T08:55:59.067Z,9.40
2019-02-21T08:58:39.313Z,9.40
2019-02-21T09:01:30.764Z,9.40
2019-02-21T09:04:27.701Z,9.50
2019-02-21T09:07:07.801Z,9.50
2019-02-21T09:09:58.777Z,9.50
2019-02-21T09:12:48.041Z,9.60
2019-02-21T09:18:30.096Z,9.70
2019-02-21T09:21:24.955Z,9.70
2019-02-21T09:24:26.798Z,9.70
2019-02-21T09:27:22.317Z,9.70
2019-02-21T09:29:46.619Z,9.80
2019-02-21T09:32:25.232Z,9.80
2019-02-21T09:35:38.821Z,9.90
2019-02-21T09:38:18.592Z,9.90
2019-02-21T09:41:13.274Z,10.00
2019-02-21T09:47:12.348Z,10.00
2019-02-21T09:49:51.677Z,10.20
2019-02-21T09:52:32.959Z,10.20
2019-02-21T09:55:23.613Z,10.20
2019-02-21T09:57:56.348Z,10.30
2019-02-21T10:00:37.324Z,10.40
2019-02-21T10:03:20.994Z,10.50
2019-02-21T10:06:02.698Z,10.50
2019-02-21T10:08:42.580Z,10.50
2019-02-21T10:11:22.452Z,10.70
2019-02-21T10:14:09.809Z,10.70
2019-02-21T10:16:42.945Z,10.70
2019-02-21T10:19:20.917Z,10.90
2019-02-21T10:22:10.717Z,10.90
2019-02-21T10:24:41.893Z,11.00
2019-02-21T10:27:51.226Z,11.10
2019-02-21T10:30:30.772Z,11.10
2019-02-21T10:35:54.364Z,11.40
2019-02-21T10:38:34.052Z,11.50
2019-02-21T10:42:16.400Z,11.70
2019-02-21T10:44:06.912Z,11.80
2019-02-21T10:49:33.820Z,11.60
2019-02-21T10:59:46.305Z,11.60
2019-02-21T11:01:01.494Z,11.60
2019-02-21T11:03:43.205Z,11.70
2019-02-21T11:09:04.474Z,11.80
2019-02-21T11:11:45.971Z,11.90
2019-02-21T11:14:34.156Z,11.60
2019-02-21T11:17:27.631Z,11.60
2019-02-21T11:20:16.928Z,11.40
2019-02-21T11:23:06.671Z,11.60
2019-02-21T11:25:54.723Z,11.60
2019-02-21T11:28:36.077Z,11.60
2019-02-21T11:31:29.833Z,11.70
2019-02-21T11:34:20.510Z,11.60
2019-02-21T11:37:12.144Z,11.70
2019-02-21T11:40:01.103Z,11.70
2019-02-21T11:42:45.838Z,11.80
2019-02-21T11:45:33.754Z,11.70
2019-02-21T11:48:23.748Z,11.80
2019-02-21T11:51:12.553Z,11.80
2019-02-21T11:54:03.088Z,11.70
2019-02-21T11:56:48.696Z,11.70
2019-02-21T11:59:39.435Z,11.90
2019-02-21T12:02:38.901Z,11.70
2019-02-21T12:07:26.969Z,12.00
2019-02-21T12:09:59.921Z,11.60
2019-02-21T12:12:30.717Z,11.50
2019-02-21T12:15:08.407Z,11.70
2019-02-21T12:18:01.420Z,11.70
2019-02-21T12:20:50.636Z,11.70
2019-02-21T12:23:29.916Z,11.80
2019-02-21T12:26:13.830Z,12.00
2019-02-21T12:29:06.003Z,12.50
2019-02-21T12:31:46.538Z,13.10
2019-02-21T12:34:42.162Z,13.10
2019-02-21T12:37:32.343Z,13.40
2019-02-21T12:40:14.085Z,13.50
2019-02-21T12:43:06.826Z,13.50
2019-02-21T12:45:55.392Z,13.20
2019-02-21T12:48:45.813Z,13.10
2019-02-21T12:51:35.493Z,13.30
2019-02-21T12:54:18.593Z,13.50
2019-02-21T12:57:10.039Z,13.30
2019-02-21T12:59:57.270Z,13.30
2019-02-21T13:02:41.894Z,13.70
2019-02-21T13:05:09.249Z,13.60
2019-02-21T13:07:34.934Z,13.40
2019-02-21T13:10:23.959Z,13.40
2019-02-21T13:13:24.221Z,13.20
2019-02-21T13:16:12.184Z,13.10
2019-02-21T13:18:50.602Z,13.20
2019-02-21T13:21:33.360Z,13.30
2019-02-21T13:24:14.701Z,13.20
2019-02-21T13:26:44.804Z,13.20
2019-02-21T13:29:36.651Z,13.20
2019-02-21T13:32:11.317Z,13.20
2019-02-21T13:34:46.279Z,13.20
2019-02-21T13:37:28.262Z,13.20
2019-02-21T13:39:54.687Z,13.10
2019-02-21T13:42:24.764Z,13.20
2019-02-21T13:44:56.966Z,13.30
2019-02-21T13:47:28.111Z,13.20
2019-02-21T13:49:59.691Z,13.20
2019-02-21T13:52:31.634Z,13.30
2019-02-21T13:55:03.953Z,13.20
2019-02-21T13:57:36.514Z,13.10
2019-02-21T14:00:07.590Z,13.20
2019-02-21T14:02:40.416Z,13.20
2019-02-21T14:05:10.605Z,13.40
2019-02-21T14:07:44.511Z,13.30
2019-02-21T14:10:17.931Z,13.40
2019-02-21T14:12:49.661Z,13.40
2019-02-21T14:15:21.917Z,13.40
2019-02-21T14:17:54.694Z,13.40
2019-02-21T14:20:26.834Z,13.40
2019-02-21T14:23:00.371Z,13.50
2019-02-21T14:25:40.288Z,13.60
2019-02-21T14:28:02.617Z,13.50
2019-02-21T14:30:32.692Z,13.50
2019-02-21T14:33:02.851Z,13.70
2019-02-21T14:35:37.899Z,13.60
2019-02-21T14:38:09.142Z,13.70
2019-02-21T14:40:44.623Z,13.80
2019-02-21T14:43:19.012Z,13.80
2019-02-21T14:45:53.839Z,13.70
2019-02-21T14:48:26.632Z,13.70
2019-02-21T14:51:04.453Z,13.80
2019-02-21T14:53:43.652Z,13.80
2019-02-21T14:56:22.496Z,13.90
2019-02-21T14:59:14.137Z,13.90
2019-02-21T15:01:46.390Z,13.70
2019-02-21T15:04:27.067Z,13.90
2019-02-21T15:07:07.211Z,14.00
2019-02-21T15:09:46.653Z,14.00
2019-02-21T15:12:30.109Z,14.10
2019-02-21T15:15:21.862Z,14.10
2019-02-21T15:17:51.196Z,14.00
2019-02-21T15:20:36.936Z,13.90
2019-02-21T15:23:13.575Z,13.90
2019-02-21T15:25:54.748Z,13.90
2019-02-21T15:28:37.710Z,13.90
2019-02-21T15:31:20.778Z,13.90
2019-02-21T15:33:59.806Z,13.80
2019-02-21T15:36:38.837Z,13.80
2019-02-21T15:39:27.997Z,13.80
2019-02-21T15:41:57.914Z,13.70
2019-02-21T15:44:48.459Z,13.80
2019-02-21T15:47:23.189Z,13.70
2019-02-21T15:50:04.436Z,13.70
2019-02-21T15:52:42.480Z,13.60
2019-02-21T15:55:26.178Z,13.70
2019-02-21T15:58:15.246Z,13.70
2019-02-21T16:00:46.543Z,13.60
2019-02-21T16:04:59.835Z,13.60
2019-02-21T16:10:10.110Z,13.40
2019-02-21T16:12:51.946Z,13.30
2019-02-21T16:16:17.627Z,13.20
2019-02-21T16:18:44.144Z,13.00
2019-02-21T16:22:36.771Z,13.00
2019-02-21T16:24:49.810Z,12.80
2019-02-21T16:27:38.960Z,12.70
2019-02-21T16:30:15.761Z,12.70
2019-02-21T16:32:52.921Z,12.50
2019-02-21T16:36:07.050Z,12.50
2019-02-21T16:41:09.062Z,12.30
2019-02-21T16:44:00.272Z,12.30
2019-02-21T16:49:16.744Z,12.10
2019-02-21T16:52:26.916Z,11.90
2019-02-21T16:55:03.573Z,11.80
2019-02-21T16:57:44.134Z,11.80
2019-02-21T17:00:37.276Z,11.90
2019-02-21T17:03:05.660Z,11.80
2019-02-21T17:05:46.129Z,11.70
2019-02-21T17:08:27.498Z,11.80
2019-02-21T17:11:06.698Z,11.60
2019-02-21T17:13:57.862Z,11.50
2019-02-21T17:16:49.886Z,11.40
2019-02-21T17:20:07.866Z,11.20
2019-02-21T17:22:38.150Z,11.20
2019-02-21T17:25:27.219Z,11.30
2019-02-21T17:28:19.463Z,11.00
2019-02-21T17:31:09.151Z,11.00
2019-02-21T17:34:19.102Z,10.80
2019-02-21T17:40:03.570Z,10.50
2019-02-21T17:42:56.312Z,10.30
2019-02-21T17:45:37.155Z,10.20
2019-02-21T17:50:44.335Z,10.00
2019-02-21T17:53:54.561Z,10.00
2019-02-21T17:56:24.636Z,10.00
2019-02-21T17:59:39.165Z,10.10
2019-02-21T18:01:52.993Z,10.00
2019-02-21T18:04:42.053Z,10.00
2019-02-21T18:07:37.799Z,10.00
2019-02-21T18:10:22.846Z,9.90
2019-02-21T18:13:17.073Z,9.60
2019-02-21T18:15:54.823Z,9.40
2019-02-21T18:18:33.599Z,9.30
2019-02-21T18:22:37.650Z,9.50
2019-02-21T18:23:55.011Z,9.60
2019-02-21T18:26:37.942Z,9.60
2019-02-21T18:29:17.833Z,9.50
2019-02-21T18:31:52.586Z,9.50
2019-02-21T18:34:33.082Z,9.30
2019-02-21T18:37:22.737Z,9.40
2019-02-21T18:40:04.018Z,9.30
2019-02-21T18:42:37.611Z,9.10
2019-02-21T18:45:08.032Z,9.20
2019-02-21T18:47:39.271Z,9.20
2019-02-21T18:50:12.756Z,9.10
2019-02-21T18:52:47.382Z,9.10
2019-02-21T18:55:19.869Z,9.00
2019-02-21T18:57:52.044Z,9.00
2019-02-21T19:00:24.814Z,9.00
2019-02-21T19:02:59.068Z,9.00
2019-02-21T19:05:35.748Z,9.10
2019-02-21T19:08:05.502Z,9.00
2019-02-21T19:10:36.007Z,8.80
2019-02-21T19:13:07.808Z,8.90
2019-02-21T19:16:07.753Z,8.90
2019-02-21T19:19:37.410Z,8.80
2019-02-21T19:30:55.561Z,8.50
2019-02-21T19:33:56.010Z,8.50
2019-02-21T19:37:17.822Z,8.30
2019-02-21T19:43:09.407Z,8.10
2019-02-21T19:47:27.928Z,7.90
2019-02-21T19:48:51.207Z,7.90
2019-02-21T19:51:18.608Z,7.80
2019-02-21T19:53:54.461Z,7.70
2019-02-21T19:56:28.175Z,7.60
2019-02-21T19:59:08.297Z,7.60
2019-02-21T20:01:39.136Z,7.40
2019-02-21T20:04:17.289Z,7.30
2019-02-21T20:06:47.868Z,7.30
2019-02-21T20:09:23.609Z,7.30
2019-02-21T20:11:57.722Z,7.30
2019-02-21T20:17:27.868Z,7.70
